Time;durP1;ratioP1;P1;durP2;ratioP2;P2;SDS_P1;SDS_P2;PMS_P1;PMS_P2;Temp;Humidity;BMP_temperature;BMP_pressure;BME280_temperature;BME280_humidity;BME280_pressure;Samples;Min_cycle;Max_cycle;Signal;HPM_P1;HPM_P2
2021/12/25 00:01:21;;;;;;;;;;;;;;;7.88;68.66;98753.66;4398725;32;33162;-85
2021/12/25 00:03:50;;;;;;;;;;;;;;;8.30;66.99;98746.72;4384390;32;34781;-84
2021/12/25 00:06:17;;;;;;;;;;;;;;;8.14;67.14;98759.00;4384572;32;35380;-86
2021/12/25 00:08:45;;;;;;;;;;;;;;;8.29;66.53;98753.00;4392191;32;35407;-84
2021/12/25 00:11:13;;;;;;;;;;;;;;;8.39;65.69;98742.31;4369233;32;33467;-86
2021/12/25 00:13:41;;;;;;;;;;;;;;;8.10;66.55;98749.72;4393401;32;33592;-85
2021/12/25 00:16:09;;;;;;;;;;;;;;;8.27;66.08;98760.28;4388966;32;34616;-85
2021/12/25 00:18:38;;;;;;;;;;;;;;;8.19;66.50;98756.75;4394950;32;33835;-84
2021/12/25 00:21:06;;;;;;;;;;;;;;;8.35;65.94;98767.44;4371382;32;33533;-81
2021/12/25 00:23:34;;;;;;;;;;;;;;;7.90;67.35;98759.63;4383323;32;35565;-86
2021/12/25 00:26:11;;;;;;;;;;;;;;;8.27;66.74;98754.16;4392240;32;36177;-84
2021/12/25 00:36:12;;;;;;;;;;;;;;;8.42;66.00;98764.06;4381625;32;34693;-87
2021/12/25 00:38:42;;;;;;;;;;;;;;;8.64;65.44;98767.00;4394360;32;34160;-87
2021/12/25 00:41:10;;;;;;;;;;;;;;;8.49;65.68;98775.66;4369727;32;32327;-86
2021/12/25 00:43:38;;;;;;;;;;;;;;;8.45;65.88;98769.03;4387098;32;34314;-86
2021/12/25 00:46:06;;;;;;;;;;;;;;;8.53;65.81;98772.56;4386396;32;35056;-82
2021/12/25 00:48:33;;;;;;;;;;;;;;;8.39;65.75;98774.94;4393670;32;33791;-85
2021/12/25 00:51:00;;;;;;;;;;;;;;;8.45;66.08;98775.16;4382128;32;33010;-87
2021/12/25 00:53:28;;;;;;;;;;;;;;;8.10;67.23;98776.19;4383813;32;33899;-85
2021/12/25 00:55:55;;;;;;;;;;;;;;;8.12;66.85;98780.34;4383902;32;34946;-87
2021/12/25 00:58:23;;;;;;;;;;;;;;;8.30;66.36;98785.66;4382687;32;34790;-83
2021/12/25 01:00:51;;;;;;;;;;;;;;;8.24;66.57;98784.47;4383318;32;33045;-87
2021/12/25 01:03:19;;;;;;;;;;;;;;;8.41;65.33;98775.66;4383259;32;33733;-85
2021/12/25 01:05:47;;;;;;;;;;;;;;;8.05;66.50;98773.16;4391450;32;36142;-83
2021/12/25 01:08:15;;;;;;;;;;;;;;;8.11;66.17;98778.66;4384117;32;34074;-85
2021/12/25 01:10:43;;;;;;;;;;;;;;;8.35;65.77;98794.81;4384364;32;33722;-82
2021/12/25 01:24:11;;;;;;;;;;;;;;;8.41;65.76;98799.50;4391908;32;34246;-84
2021/12/25 01:29:35;;;;;;;;;;;;;;;8.43;65.35;98792.22;4384140;32;34117;-86
2021/12/25 01:47:47;;;;;;;;;;;;;;;7.92;67.91;98804.50;4379506;32;35347;-82
2021/12/25 01:50:16;;;;;;;;;;;;;;;8.01;67.44;98806.25;4380469;32;35490;-85
2021/12/25 01:52:44;;;;;;;;;;;;;;;8.43;65.90;98814.22;4382314;32;32785;-83
2021/12/25 01:55:15;;;;;;;;;;;;;;;8.54;65.57;98813.97;4383732;32;34164;-86
2021/12/25 01:57:43;;;;;;;;;;;;;;;8.43;65.85;98818.72;4383327;32;36798;-85
2021/12/25 02:00:14;;;;;;;;;;;;;;;8.26;66.49;98821.38;4382404;32;35759;-87
2021/12/25 02:02:42;;;;;;;;;;;;;;;8.07;67.43;98817.06;4382939;32;32893;-87
2021/12/25 02:05:11;;;;;;;;;;;;;;;8.19;66.80;98801.81;4392648;32;32541;-85
2021/12/25 02:07:38;;;;;;;;;;;;;;;8.35;66.57;98802.75;4393787;32;35129;-84
2021/12/25 02:10:06;;;;;;;;;;;;;;;8.27;66.73;98807.97;4364872;32;35224;-85
2021/12/25 02:12:35;;;;;;;;;;;;;;;8.48;66.01;98811.97;4392331;32;32850;-87
2021/12/25 02:15:08;;;;;;;;;;;;;;;8.43;66.31;98794.03;4397181;32;33861;-87
2021/12/25 02:20:18;;;;;;;;;;;;;;;8.41;66.35;98810.09;4384253;32;34840;-87
2021/12/25 02:22:47;;;;;;;;;;;;;;;8.36;66.40;98809.72;4391885;32;34995;-82
2021/12/25 02:25:14;;;;;;;;;;;;;;;8.51;65.94;98798.38;4381506;32;34904;-85
2021/12/25 02:27:44;;;;;;;;;;;;;;;8.54;65.59;98808.66;4383470;32;35173;-88
2021/12/25 02:30:11;;;;;;;;;;;;;;;8.54;65.64;98797.25;4388022;32;35435;-87
2021/12/25 02:32:42;;;;;;;;;;;;;;;8.63;65.52;98797.13;4393462;32;33419;-83
2021/12/25 02:35:11;;;;;;;;;;;;;;;8.71;65.20;98794.53;4380453;32;33873;-88
2021/12/25 02:37:40;;;;;;;;;;;;;;;8.69;64.88;98790.41;4367948;32;35399;-87
2021/12/25 02:40:08;;;;;;;;;;;;;;;8.63;65.25;98789.19;4380142;32;34423;-85
2021/12/25 02:42:36;;;;;;;;;;;;;;;8.35;66.26;98791.31;4381958;32;32611;-84
2021/12/25 02:45:04;;;;;;;;;;;;;;;8.59;65.47;98789.66;4363109;32;32318;-87
2021/12/25 02:47:32;;;;;;;;;;;;;;;8.58;65.29;98791.50;4398192;32;36040;-86
2021/12/25 02:50:00;;;;;;;;;;;;;;;8.69;64.95;98788.56;4386711;32;35139;-85
2021/12/25 02:52:27;;;;;;;;;;;;;;;8.70;64.53;98790.22;4384202;32;33138;-83
2021/12/25 02:54:56;;;;;;;;;;;;;;;8.49;65.06;98792.41;4370411;32;34220;-86
2021/12/25 02:57:23;;;;;;;;;;;;;;;8.67;64.49;98795.84;4376245;32;35934;-85
2021/12/25 02:59:51;;;;;;;;;;;;;;;8.71;63.90;98791.06;4391978;32;35659;-87
2021/12/25 03:02:18;;;;;;;;;;;;;;;8.33;64.57;98798.59;4390906;32;33371;-86
2021/12/25 03:04:47;;;;;;;;;;;;;;;8.62;63.64;98792.81;4382037;32;34340;-88
2021/12/25 03:07:14;;;;;;;;;;;;;;;8.60;63.29;98788.69;4388107;32;34710;-85
2021/12/25 03:09:42;;;;;;;;;;;;;;;8.71;62.72;98783.94;4368432;32;33626;-84
2021/12/25 03:12:13;;;;;;;;;;;;;;;8.63;62.99;98780.41;4397614;32;34187;-84
2021/12/25 03:17:48;;;;;;;;;;;;;;;8.14;63.68;98788.97;4345421;32;35691;-85
2021/12/25 03:20:16;;;;;;;;;;;;;;;7.92;65.02;98781.50;4343578;32;34481;-84
2021/12/25 03:22:44;;;;;;;;;;;;;;;7.91;65.19;98781.66;4359123;32;33056;-86
2021/12/25 03:25:12;;;;;;;;;;;;;;;7.96;64.92;98789.97;4341831;32;34954;-83
2021/12/25 03:27:40;;;;;;;;;;;;;;;8.00;65.07;98801.94;4345202;32;34992;-82
2021/12/25 03:30:08;;;;;;;;;;;;;;;8.08;65.01;98794.88;4350564;32;34754;-85
2021/12/25 03:32:36;;;;;;;;;;;;;;;8.11;65.04;98791.09;4352138;32;33990;-85
2021/12/25 03:35:05;;;;;;;;;;;;;;;8.14;64.85;98788.13;4352805;32;34843;-85
2021/12/25 03:37:33;;;;;;;;;;;;;;;8.20;64.26;98801.62;4352064;32;35981;-81
2021/12/25 03:40:00;;;;;;;;;;;;;;;7.94;64.91;98802.53;4350805;32;35778;-84
2021/12/25 03:42:28;;;;;;;;;;;;;;;8.26;63.61;98816.06;4351957;32;32105;-81
2021/12/25 03:44:55;;;;;;;;;;;;;;;8.16;63.56;98810.84;4350023;32;34684;-84
2021/12/25 03:47:28;;;;;;;;;;;;;;;7.88;64.32;98819.87;4350615;32;35504;-87
2021/12/25 03:58:19;;;;;;;;;;;;;;;7.97;64.29;98828.69;4379401;32;34984;-81
2021/12/25 04:00:48;;;;;;;;;;;;;;;8.12;63.86;98833.31;4362398;32;34010;-86
2021/12/25 04:03:26;;;;;;;;;;;;;;;8.20;63.78;98833.41;4375065;32;32710;-87
2021/12/25 04:05:54;;;;;;;;;;;;;;;8.11;64.07;98839.59;4385401;32;33511;-85
2021/12/25 04:08:30;;;;;;;;;;;;;;;7.90;64.85;98839.06;4391390;32;34923;-85
2021/12/25 04:11:03;;;;;;;;;;;;;;;8.26;63.99;98846.06;4385653;32;33911;-86
2021/12/25 04:13:32;;;;;;;;;;;;;;;7.94;64.77;98850.19;4388920;32;33219;-84
2021/12/25 04:16:00;;;;;;;;;;;;;;;8.03;64.83;98844.81;4373010;32;34575;-83
2021/12/25 04:18:27;;;;;;;;;;;;;;;8.48;63.63;98841.13;4375151;32;35049;-86
2021/12/25 04:20:55;;;;;;;;;;;;;;;8.04;64.60;98840.38;4380027;32;34490;-86
2021/12/25 04:23:27;;;;;;;;;;;;;;;7.95;65.18;98846.56;4386213;32;33234;-85
2021/12/25 04:25:56;;;;;;;;;;;;;;;8.15;65.25;98854.22;4384317;32;35776;-84
2021/12/25 04:28:38;;;;;;;;;;;;;;;;;;;;;
2021/12/25 04:50:06;;;;;;;;;;;;;;;7.69;68.32;98833.25;4396334;32;35304;-84
2021/12/25 05:03:55;;;;;;;;;;;;;;;7.92;66.13;98815.91;4386425;32;34535;-85
2021/12/25 05:06:24;;;;;;;;;;;;;;;8.01;65.58;98825.59;4384053;32;33425;-83
2021/12/25 05:08:52;;;;;;;;;;;;;;;7.89;65.43;98826.81;4370718;32;33372;-80
2021/12/25 05:11:20;;;;;;;;;;;;;;;7.83;65.19;98824.75;4382733;32;35347;-84
2021/12/25 05:13:52;;;;;;;;;;;;;;;7.97;64.64;98823.41;4372592;32;33135;-86
2021/12/25 05:16:20;;;;;;;;;;;;;;;7.95;64.53;98820.09;4388002;32;33034;-84
2021/12/25 05:18:49;;;;;;;;;;;;;;;7.99;64.02;98816.97;4369633;32;33693;-81
2021/12/25 05:21:18;;;;;;;;;;;;;;;7.87;64.16;98820.84;4374370;32;36404;-84
2021/12/25 05:23:47;;;;;;;;;;;;;;;7.72;64.28;98821.53;4394420;32;34902;-84
2021/12/25 05:26:15;;;;;;;;;;;;;;;7.83;64.01;98826.59;4390996;32;33225;-82
2021/12/25 05:28:46;;;;;;;;;;;;;;;7.73;64.07;98836.41;4397720;32;33517;-84
2021/12/25 05:31:15;;;;;;;;;;;;;;;7.68;64.49;98844.81;4383444;32;36008;-84
2021/12/25 05:33:43;;;;;;;;;;;;;;;7.76;64.00;98846.69;4371209;32;33746;-84
2021/12/25 05:36:11;;;;;;;;;;;;;;;7.77;63.89;98840.41;4384592;32;33626;-82
2021/12/25 05:38:40;;;;;;;;;;;;;;;7.47;64.80;98841.56;4384238;32;34137;-85
2021/12/25 05:41:11;;;;;;;;;;;;;;;7.62;63.98;98834.81;4389682;32;34539;-85
2021/12/25 05:43:39;;;;;;;;;;;;;;;7.66;63.74;98838.00;4373997;32;34604;-85
2021/12/25 05:46:07;;;;;;;;;;;;;;;7.53;63.90;98838.34;4384787;32;33665;-85
2021/12/25 05:48:37;;;;;;;;;;;;;;;7.57;63.69;98845.00;4372949;32;31870;-84
2021/12/25 05:51:05;;;;;;;;;;;;;;;7.53;63.88;98832.19;4373509;32;35932;-86
2021/12/25 05:53:33;;;;;;;;;;;;;;;7.47;63.97;98832.81;4367220;32;33414;-84
2021/12/25 05:56:01;;;;;;;;;;;;;;;7.52;63.84;98841.97;4381160;32;33090;-85
2021/12/25 05:58:29;;;;;;;;;;;;;;;7.47;64.03;98846.88;4380684;32;33087;-82
2021/12/25 06:00:57;;;;;;;;;;;;;;;7.37;64.33;98839.97;4366994;32;36248;-84
2021/12/25 06:03:25;;;;;;;;;;;;;;;7.47;64.26;98846.03;4380383;32;35332;-85
2021/12/25 06:05:52;;;;;;;;;;;;;;;7.51;64.00;98840.31;4381046;32;33543;-85
2021/12/25 06:08:20;;;;;;;;;;;;;;;7.49;64.04;98838.78;4391562;32;34264;-81
2021/12/25 06:10:48;;;;;;;;;;;;;;;7.53;63.85;98854.22;4376715;32;34647;-84
2021/12/25 06:13:20;;;;;;;;;;;;;;;7.46;63.74;98858.44;4379790;32;35062;-85
2021/12/25 06:15:49;;;;;;;;;;;;;;;7.25;64.61;98864.94;4381053;32;32691;-84
2021/12/25 06:18:17;;;;;;;;;;;;;;;7.11;65.12;98863.63;4380066;32;34930;-84
2021/12/25 06:20:45;;;;;;;;;;;;;;;7.07;65.70;98861.41;4380135;32;35667;-85
2021/12/25 06:23:13;;;;;;;;;;;;;;;7.23;65.06;98862.47;4377391;32;34118;-84
2021/12/25 06:25:40;;;;;;;;;;;;;;;7.00;65.86;98874.34;4377130;32;33458;-84
2021/12/25 06:28:11;;;;;;;;;;;;;;;6.73;66.64;98873.47;4379733;32;33873;-86
2021/12/25 06:30:41;;;;;;;;;;;;;;;6.76;66.63;98881.97;4380749;32;36207;-84
2021/12/25 06:33:09;;;;;;;;;;;;;;;6.89;66.41;98877.19;4380751;32;33778;-84
2021/12/25 06:35:39;;;;;;;;;;;;;;;7.08;65.74;98885.06;4379909;32;33317;-84
2021/12/25 06:38:09;;;;;;;;;;;;;;;6.82;66.70;98888.47;4378447;32;34320;-84
2021/12/25 06:40:37;;;;;;;;;;;;;;;7.11;65.79;98878.66;4379813;32;35837;-86
2021/12/25 06:43:05;;;;;;;;;;;;;;;6.91;66.81;98883.16;4379744;32;33702;-84
2021/12/25 06:45:33;;;;;;;;;;;;;;;7.08;66.27;98886.88;4377936;32;31901;-85
2021/12/25 06:48:01;;;;;;;;;;;;;;;7.02;66.36;98890.09;4379370;32;34464;-84
2021/12/25 06:50:33;;;;;;;;;;;;;;;6.65;68.69;98894.50;4374879;32;35863;-84
2021/12/25 06:53:01;;;;;;;;;;;;;;;6.85;67.92;98904.06;4370971;32;33269;-84
2021/12/25 06:55:30;;;;;;;;;;;;;;;7.35;65.86;98900.16;4376565;32;34239;-84
2021/12/25 06:58:00;;;;;;;;;;;;;;;7.16;66.30;98906.34;4369029;32;34872;-81
2021/12/25 07:00:27;;;;;;;;;;;;;;;7.17;66.07;98907.19;4369872;32;35615;-84
2021/12/25 07:02:55;;;;;;;;;;;;;;;7.18;65.90;98903.56;4369219;32;34992;-85
2021/12/25 07:05:29;;;;;;;;;;;;;;;7.15;65.79;98911.75;4369200;32;33501;-82
2021/12/25 07:08:00;;;;;;;;;;;;;;;6.99;65.77;98912.38;4368295;32;34017;-82
2021/12/25 07:10:28;;;;;;;;;;;;;;;7.12;65.27;98912.91;4355745;32;34604;-84
2021/12/25 07:12:55;;;;;;;;;;;;;;;7.04;65.43;98922.50;4381066;32;34062;-84
2021/12/25 07:15:24;;;;;;;;;;;;;;;7.17;64.80;98923.06;4368213;32;33358;-86
2021/12/25 07:17:52;;;;;;;;;;;;;;;6.91;66.12;98927.28;4380926;32;34444;-86
2021/12/25 07:20:20;;;;;;;;;;;;;;;6.95;67.56;98932.16;4368606;32;34017;-86
2021/12/25 07:22:48;;;;;;;;;;;;;;;7.17;67.27;98930.97;4382263;32;35212;-83
2021/12/25 07:25:16;;;;;;;;;;;;;;;7.01;67.05;98926.25;4367916;32;33432;-84
2021/12/25 07:27:46;;;;;;;;;;;;;;;6.77;67.67;98931.19;4367895;32;34170;-81
2021/12/25 07:30:14;;;;;;;;;;;;;;;6.72;67.81;98932.59;4368485;32;34525;-84
2021/12/25 07:32:46;;;;;;;;;;;;;;;6.71;68.01;98930.94;4368584;32;34066;-86
2021/12/25 07:35:14;;;;;;;;;;;;;;;7.19;66.49;98929.03;4355923;32;909947;-83
2021/12/25 07:37:41;;;;;;;;;;;;;;;7.40;65.69;98930.47;4382167;32;33931;-86
2021/12/25 07:40:11;;;;;;;;;;;;;;;7.41;65.62;98933.94;4383677;32;35054;-85
2021/12/25 07:42:38;;;;;;;;;;;;;;;7.37;65.76;98945.81;4371195;32;34403;-82
2021/12/25 07:45:07;;;;;;;;;;;;;;;6.97;67.15;98946.06;4370219;32;31668;-84
2021/12/25 07:47:40;;;;;;;;;;;;;;;7.23;66.03;98940.97;4359775;32;34230;-84
2021/12/25 07:50:11;;;;;;;;;;;;;;;7.20;65.76;98944.75;4359069;32;33636;-83
2021/12/25 07:52:40;;;;;;;;;;;;;;;7.35;65.12;98943.28;4371926;32;34592;-82
2021/12/25 07:55:08;;;;;;;;;;;;;;;7.42;64.69;98951.47;4384501;32;32555;-82
2021/12/25 07:57:35;;;;;;;;;;;;;;;7.36;65.02;98947.59;4384328;32;32658;-85
2021/12/25 08:00:04;;;;;;;;;;;;;;;7.26;65.50;98948.63;4371785;32;34269;-84
2021/12/25 08:02:52;;;;;;;;;;;;;;;7.45;64.98;98944.09;4396302;32;34594;-84
2021/12/25 08:05:25;;;;;;;;;;;;;;;7.36;65.24;98934.37;4383622;32;33511;-84
2021/12/25 08:07:53;;;;;;;;;;;;;;;7.36;65.54;98936.22;4381683;32;32921;-80
2021/12/25 08:10:21;;;;;;;;;;;;;;;7.29;66.25;98938.56;4368873;32;35241;-83
2021/12/25 08:12:53;;;;;;;;;;;;;;;7.41;66.04;98934.78;4382099;32;35191;-84
2021/12/25 08:15:29;;;;;;;;;;;;;;;7.48;66.08;98938.53;4386750;32;32838;-82
2021/12/25 08:18:03;;;;;;;;;;;;;;;7.48;66.32;98942.97;4378951;32;33084;-86
2021/12/25 08:20:53;;;;;;;;;;;;;;;7.79;65.50;98942.56;4382820;32;33687;-85
2021/12/25 08:23:39;;;;;;;;;;;;;;;7.83;65.71;98945.75;4371879;32;35780;-85
2021/12/25 08:26:15;;;;;;;;;;;;;;;8.02;65.15;98940.34;4384395;32;33740;-85
2021/12/25 08:28:46;;;;;;;;;;;;;;;7.95;65.58;98949.84;4385139;32;34936;-84
2021/12/25 08:31:31;;;;;;;;;;;;;;;7.95;66.08;98947.19;4397989;32;35844;-84
2021/12/25 08:34:01;;;;;;;;;;;;;;;7.94;66.28;98943.69;4393390;32;34985;-85
2021/12/25 08:36:33;;;;;;;;;;;;;;;8.14;65.74;98936.47;4373613;32;33940;-85
2021/12/25 08:39:05;;;;;;;;;;;;;;;8.09;66.07;98928.97;4386125;32;33441;-85
2021/12/25 08:41:34;;;;;;;;;;;;;;;8.02;66.62;98921.78;4378949;32;36972;-83
2021/12/25 08:44:08;;;;;;;;;;;;;;;8.35;65.49;98921.16;4394041;32;34104;-83
2021/12/25 08:46:45;;;;;;;;;;;;;;;8.30;65.97;98913.66;4384349;32;33753;-85
2021/12/25 08:49:16;;;;;;;;;;;;;;;8.35;66.13;98907.91;4372662;32;32725;-85
2021/12/25 08:51:45;;;;;;;;;;;;;;;8.62;65.01;98911.31;4382227;32;36252;-85
2021/12/25 08:54:15;;;;;;;;;;;;;;;8.22;66.16;98916.22;4370268;32;34431;-87
2021/12/25 08:56:45;;;;;;;;;;;;;;;8.27;66.37;98910.47;4382632;32;34094;-85
2021/12/25 08:59:20;;;;;;;;;;;;;;;8.31;66.40;98909.22;4385036;32;34595;-86
2021/12/25 09:01:55;;;;;;;;;;;;;;;8.49;66.21;98893.13;4382715;32;34315;-86
2021/12/25 09:04:29;;;;;;;;;;;;;;;8.62;66.01;98901.53;4384133;32;34786;-84
2021/12/25 09:07:03;;;;;;;;;;;;;;;8.75;65.57;98931.16;4380303;32;32235;-85
2021/12/25 09:09:39;;;;;;;;;;;;;;;8.64;65.85;98920.78;4381487;32;32962;-86
2021/12/25 09:12:11;;;;;;;;;;;;;;;8.54;66.64;98925.31;4383077;32;36448;-86
2021/12/25 09:14:48;;;;;;;;;;;;;;;8.39;67.88;98927.84;4380237;32;35122;-85
2021/12/25 09:17:19;;;;;;;;;;;;;;;8.26;68.43;98928.22;4369380;32;32770;-86
2021/12/25 09:20:11;;;;;;;;;;;;;;;8.20;68.95;98915.53;4382593;32;33746;-84
2021/12/25 09:22:41;;;;;;;;;;;;;;;8.78;67.38;98906.97;4379976;32;34662;-85
2021/12/25 09:25:12;;;;;;;;;;;;;;;9.21;66.02;98906.09;4381032;32;34768;-86
2021/12/25 09:27:44;;;;;;;;;;;;;;;9.11;66.74;98894.75;4373355;32;33225;-81
2021/12/25 09:30:12;;;;;;;;;;;;;;;9.08;67.07;98895.87;4380746;32;33916;-87
2021/12/25 09:32:41;;;;;;;;;;;;;;;9.40;66.49;98896.09;4381287;32;35562;-84
2021/12/25 09:35:09;;;;;;;;;;;;;;;9.58;66.02;98899.47;4381820;32;34699;-85
2021/12/25 09:37:37;;;;;;;;;;;;;;;9.34;66.63;98902.00;4383323;32;33681;-85
2021/12/25 09:40:05;;;;;;;;;;;;;;;9.74;66.08;98894.22;4382047;32;33641;-85
2021/12/25 09:42:33;;;;;;;;;;;;;;;9.89;65.79;98891.78;4382847;32;34574;-86
2021/12/25 09:45:01;;;;;;;;;;;;;;;10.01;65.30;98891.31;4382053;32;34417;-87
2021/12/25 09:47:29;;;;;;;;;;;;;;;10.14;64.86;98890.88;4371499;32;33709;-85
2021/12/25 09:49:57;;;;;;;;;;;;;;;10.40;64.10;98889.75;4384632;32;34227;-85
2021/12/25 09:52:26;;;;;;;;;;;;;;;10.54;63.72;98882.94;4384111;32;35022;-82
2021/12/25 09:54:55;;;;;;;;;;;;;;;10.44;64.03;98887.59;4395543;32;34174;-86
2021/12/25 09:57:23;;;;;;;;;;;;;;;10.21;64.52;98886.56;4380200;32;33456;-86
2021/12/25 09:59:54;;;;;;;;;;;;;;;10.60;63.69;98871.66;4368392;32;32614;-85
2021/12/25 10:02:21;;;;;;;;;;;;;;;10.82;63.23;98871.78;4383348;32;34885;-87
2021/12/25 10:04:51;;;;;;;;;;;;;;;11.00;62.76;98876.91;4380536;32;34962;-82
2021/12/25 10:07:26;;;;;;;;;;;;;;;10.74;63.41;98877.12;4373265;32;32779;-87
2021/12/25 10:10:00;;;;;;;;;;;;;;;11.41;61.70;98874.81;4372953;32;34895;-86
2021/12/25 10:12:34;;;;;;;;;;;;;;;11.06;62.18;98881.56;4393568;32;34286;-87
2021/12/25 10:15:04;;;;;;;;;;;;;;;11.08;62.35;98875.09;4382926;32;34149;-87
2021/12/25 10:17:32;;;;;;;;;;;;;;;11.44;61.11;98868.34;4372396;32;34201;-86
2021/12/25 10:20:01;;;;;;;;;;;;;;;11.14;63.00;98871.72;4382085;32;34233;-86
2021/12/25 10:22:29;;;;;;;;;;;;;;;11.56;61.04;98877.59;4384026;32;35264;-86
2021/12/25 10:25:10;;;;;;;;;;;;;;;11.89;60.05;98874.66;4393863;32;34008;-86
2021/12/25 10:27:46;;;;;;;;;;;;;;;12.04;59.75;98869.41;4370662;32;32189;-86
2021/12/25 10:30:13;;;;;;;;;;;;;;;11.94;59.81;98874.13;4398463;32;34854;-84
2021/12/25 10:32:41;;;;;;;;;;;;;;;11.97;59.65;98868.44;4372387;32;33796;-85
2021/12/25 10:35:16;;;;;;;;;;;;;;;12.45;58.66;98871.63;4380587;32;35261;-87
2021/12/25 10:37:45;;;;;;;;;;;;;;;12.26;58.05;98873.91;4392879;32;33216;-85
2021/12/25 10:40:27;;;;;;;;;;;;;;;12.48;58.36;98865.91;4384816;32;33522;-85
2021/12/25 10:42:58;;;;;;;;;;;;;;;12.56;57.69;98860.53;4396168;32;36105;-87
2021/12/25 10:45:28;;;;;;;;;;;;;;;12.88;56.85;98862.06;4391507;32;34320;-87
2021/12/25 10:48:00;;;;;;;;;;;;;;;12.96;56.64;98849.50;4381072;32;32616;-82
2021/12/25 10:50:32;;;;;;;;;;;;;;;12.75;57.82;98852.00;4393034;32;33009;-87
2021/12/25 10:53:05;;;;;;;;;;;;;;;12.62;58.19;98850.97;4368743;32;35891;-85
2021/12/25 10:55:35;;;;;;;;;;;;;;;13.16;57.21;98844.47;4379987;32;33410;-85
2021/12/25 10:58:04;;;;;;;;;;;;;;;12.73;58.40;98846.03;4381156;32;32870;-86
2021/12/25 11:00:34;;;;;;;;;;;;;;;13.30;56.91;98835.66;4379874;32;33759;-86
2021/12/25 11:03:06;;;;;;;;;;;;;;;13.63;56.10;98835.06;4382861;32;35101;-86
2021/12/25 11:05:39;;;;;;;;;;;;;;;13.76;55.67;98835.22;4382338;32;34734;-88
2021/12/25 11:08:09;;;;;;;;;;;;;;;13.72;56.00;98833.09;4367774;32;32565;-87
2021/12/25 11:10:42;;;;;;;;;;;;;;;13.67;56.45;98827.50;4372283;32;32962;-82
2021/12/25 11:13:22;;;;;;;;;;;;;;;13.68;56.97;98826.50;4380739;32;33870;-84
2021/12/25 11:16:01;;;;;;;;;;;;;;;13.73;56.53;98821.41;4377982;32;34776;-87
2021/12/25 11:18:29;;;;;;;;;;;;;;;13.63;56.78;98819.03;4382619;32;32607;-87
2021/12/25 11:20:59;;;;;;;;;;;;;;;13.93;56.14;98817.94;4374715;32;34015;-86
2021/12/25 11:23:27;;;;;;;;;;;;;;;13.87;55.73;98808.00;4385061;32;35241;-85
2021/12/25 11:25:55;;;;;;;;;;;;;;;13.81;56.58;98800.75;4371543;32;33843;-87
2021/12/25 11:28:22;;;;;;;;;;;;;;;13.90;56.18;98796.94;4359348;32;32114;-86
2021/12/25 11:30:50;;;;;;;;;;;;;;;14.12;55.41;98792.41;4381284;32;33906;-88
2021/12/25 11:33:19;;;;;;;;;;;;;;;14.38;54.77;98789.00;4372677;32;34708;-87
2021/12/25 11:35:46;;;;;;;;;;;;;;;14.12;55.52;98790.59;4383343;32;34450;-84
2021/12/25 11:38:16;;;;;;;;;;;;;;;14.29;54.60;98784.00;4370499;32;33221;-87
2021/12/25 11:40:50;;;;;;;;;;;;;;;14.20;54.58;98784.31;4382791;32;33929;-87
2021/12/25 11:43:35;;;;;;;;;;;;;;;14.45;54.40;98773.84;4382412;32;36328;-87
2021/12/25 11:46:06;;;;;;;;;;;;;;;14.58;53.13;98768.56;4382871;32;34375;-85
2021/12/25 11:48:35;;;;;;;;;;;;;;;14.49;54.31;98767.06;4374408;32;34189;-85
2021/12/25 11:51:02;;;;;;;;;;;;;;;14.54;53.29;98763.81;4371746;32;34810;-82
2021/12/25 11:54:04;;;;;;;;;;;;;;;14.42;53.91;98764.56;4381150;32;35498;-87
2021/12/25 11:56:39;;;;;;;;;;;;;;;14.45;53.99;98759.63;4393139;32;35528;-90
2021/12/25 11:59:12;;;;;;;;;;;;;;;14.73;52.87;98763.97;4378678;32;34190;-90
2021/12/25 12:01:49;;;;;;;;;;;;;;;14.89;52.23;98763.69;4382456;32;33423;-89
2021/12/25 12:04:21;;;;;;;;;;;;;;;15.08;51.26;98751.41;4380017;32;35488;-92
2021/12/25 12:06:56;;;;;;;;;;;;;;;15.04;52.04;98750.16;4393775;32;34992;-93
2021/12/25 12:09:30;;;;;;;;;;;;;;;14.82;52.31;98757.44;4381237;32;32678;-88
2021/12/25 12:12:05;;;;;;;;;;;;;;;15.02;51.62;98755.72;4380552;32;33119;-94
2021/12/25 12:14:34;;;;;;;;;;;;;;;15.07;51.85;98755.97;4374529;32;34649;-95
2021/12/25 12:17:06;;;;;;;;;;;;;;;15.26;51.56;98759.75;4378458;32;34329;-92
2021/12/25 12:19:36;;;;;;;;;;;;;;;15.42;50.46;98760.28;4367902;32;32464;-92
2021/12/25 12:25:12;;;;;;;;;;;;;;;15.31;50.60;98757.34;4380868;32;35588;-92
2021/12/25 12:27:36;;;;;;;;;;;;;;;15.45;50.50;98754.53;4385411;32;34962;-93
2021/12/25 12:30:05;;;;;;;;;;;;;;;15.53;50.69;98748.16;4370387;32;33834;-91
2021/12/25 12:32:44;;;;;;;;;;;;;;;15.50;50.95;98754.75;4377017;32;33979;-86
2021/12/25 12:35:31;;;;;;;;;;;;;;;15.90;48.42;98750.34;4377932;32;35833;-92
2021/12/25 12:38:43;;;;;;;;;;;;;;;15.36;49.83;98753.03;4382961;32;34544;-93
2021/12/25 12:41:11;;;;;;;;;;;;;;;15.40;49.74;98756.97;4348764;32;32411;-91
2021/12/25 12:44:03;;;;;;;;;;;;;;;15.32;49.81;98751.78;4337937;32;32507;-89
2021/12/25 12:46:50;;;;;;;;;;;;;;;15.30;50.07;98753.00;4351115;32;35118;-87
2021/12/25 12:49:22;;;;;;;;;;;;;;;15.10;51.32;98752.88;4352673;32;34571;-87
2021/12/25 12:52:09;;;;;;;;;;;;;;;15.24;51.19;98754.62;4352035;32;34043;-92
2021/12/25 12:54:38;;;;;;;;;;;;;;;15.61;50.01;98756.88;4352356;32;36035;-91
2021/12/25 12:59:55;;;;;;;;;;;;;;;15.15;51.45;98758.47;3894622;27;36777;-87
2021/12/25 13:02:24;;;;;;;;;;;;;;;15.25;50.86;98761.63;4363856;32;34100;-85
2021/12/25 13:04:55;;;;;;;;;;;;;;;15.04;52.22;98750.16;4377918;32;34717;-88
2021/12/25 13:07:26;;;;;;;;;;;;;;;15.29;51.32;98760.19;4379016;32;34982;-89
2021/12/25 13:10:00;;;;;;;;;;;;;;;15.31;51.69;98763.53;4381879;32;36247;-85
2021/12/25 13:15:04;;;;;;;;;;;;;;;15.30;51.38;98751.16;4377445;32;33800;-90
2021/12/25 13:17:33;;;;;;;;;;;;;;;15.53;50.78;98740.12;4356392;32;34854;-87
2021/12/25 13:20:01;;;;;;;;;;;;;;;15.55;50.22;98733.53;4368046;32;34318;-87
2021/12/25 13:22:35;;;;;;;;;;;;;;;15.48;50.21;98729.19;4371158;32;32724;-85
2021/12/25 13:25:08;;;;;;;;;;;;;;;14.81;52.25;98742.41;4368516;32;33716;-85
2021/12/25 13:27:37;;;;;;;;;;;;;;;14.24;54.68;98748.94;4354989;32;34077;-87
2021/12/25 13:30:21;;;;;;;;;;;;;;;14.17;55.10;98748.06;4370801;32;33998;-87
2021/12/25 13:32:50;;;;;;;;;;;;;;;13.93;55.99;98737.72;4379419;32;33502;-85
2021/12/25 13:35:23;;;;;;;;;;;;;;;13.71;56.94;98741.41;4369825;32;34525;-86
2021/12/25 13:37:58;;;;;;;;;;;;;;;13.60;57.46;98744.56;4358626;32;35315;-84
2021/12/25 13:40:48;;;;;;;;;;;;;;;13.64;57.34;98747.69;4370255;32;35569;-86
2021/12/25 13:43:26;;;;;;;;;;;;;;;13.52;57.69;98746.53;4358939;32;36154;-85
2021/12/25 13:46:13;;;;;;;;;;;;;;;13.38;58.19;98755.38;4370547;32;34376;-86
2021/12/25 13:48:43;;;;;;;;;;;;;;;12.99;59.42;98744.19;4377599;32;35006;-90
2021/12/25 13:51:33;;;;;;;;;;;;;;;13.18;58.98;98751.63;4380432;32;35343;-86
2021/12/25 13:54:06;;;;;;;;;;;;;;;12.99;59.58;98745.03;4368504;32;33453;-86
2021/12/25 13:56:52;;;;;;;;;;;;;;;12.91;59.95;98737.09;4370116;32;36450;-86
2021/12/25 13:59:41;;;;;;;;;;;;;;;12.45;61.29;98742.72;4372036;32;35512;-86
2021/12/25 14:02:14;;;;;;;;;;;;;;;12.75;60.53;98744.44;4378228;32;35006;-87
2021/12/25 14:05:05;;;;;;;;;;;;;;;12.99;59.76;98758.37;4367287;32;35328;-86
2021/12/25 14:07:40;;;;;;;;;;;;;;;13.04;59.47;98758.63;4375566;32;34822;-84
2021/12/25 14:10:32;;;;;;;;;;;;;;;13.14;58.97;98755.72;4370474;32;35217;-88
2021/12/25 14:13:05;;;;;;;;;;;;;;;13.19;58.82;98766.66;4369363;32;35147;-85
2021/12/25 14:15:36;;;;;;;;;;;;;;;12.97;59.32;98763.09;4369320;32;34125;-86
2021/12/25 14:18:31;;;;;;;;;;;;;;;12.98;59.42;98763.91;4372559;32;34628;-87
2021/12/25 14:21:22;;;;;;;;;;;;;;;12.88;59.72;98768.66;4362564;32;35419;-87
2021/12/25 14:24:08;;;;;;;;;;;;;;;12.75;60.17;98763.94;4370605;32;34204;-87
2021/12/25 14:26:51;;;;;;;;;;;;;;;12.81;59.85;98763.22;4380911;32;34451;-88
2021/12/25 14:29:30;;;;;;;;;;;;;;;12.64;60.47;98776.91;4345517;32;35175;-89
2021/12/25 14:32:24;;;;;;;;;;;;;;;12.77;59.99;98774.44;4365358;32;34296;-86
2021/12/25 14:35:18;;;;;;;;;;;;;;;12.78;59.99;98770.75;4365754;32;36078;-85
2021/12/25 14:37:53;;;;;;;;;;;;;;;12.71;60.07;98776.00;4356704;32;32179;-88
2021/12/25 14:40:23;;;;;;;;;;;;;;;12.67;60.29;98769.34;4357655;32;32884;-85
2021/12/25 14:43:12;;;;;;;;;;;;;;;12.68;60.17;98770.19;4377885;32;34799;-86
2021/12/25 14:45:50;;;;;;;;;;;;;;;12.70;60.03;98776.19;4370435;32;34134;-86
2021/12/25 14:48:40;;;;;;;;;;;;;;;12.36;60.73;98763.34;4360153;32;33561;-88